sensor_id;sensor_type;location;lat;lon;timestamp;P1;durP1;ratioP1;P2;durP2;ratioP2
57842;SDS011;43673;51.058;3.734;2022-08-19T00:01:25;61.63;;;40.88;;
57842;SDS011;43673;51.058;3.734;2022-08-19T00:03:52;61.08;;;40.42;;
57842;SDS011;43673;51.058;3.734;2022-08-19T00:06:19;56.17;;;37.03;;
57842;SDS011;43673;51.058;3.734;2022-08-19T00:08:47;56.55;;;40.35;;
57842;SDS011;43673;51.058;3.734;2022-08-19T00:11:13;58.92;;;41.42;;
57842;SDS011;43673;51.058;3.734;2022-08-19T00:13:39;60.78;;;40.92;;
57842;SDS011;43673;51.058;3.734;2022-08-19T00:16:05;56.25;;;38.80;;
57842;SDS011;43673;51.058;3.734;2022-08-19T00:18:32;61.05;;;39.88;;
57842;SDS011;43673;51.058;3.734;2022-08-19T00:20:59;59.83;;;40.17;;
57842;SDS011;43673;51.058;3.734;2022-08-19T00:23:26;60.72;;;41.47;;
57842;SDS011;43673;51.058;3.734;2022-08-19T00:25:52;62.13;;;41.42;;
57842;SDS011;43673;51.058;3.734;2022-08-19T00:28:18;60.28;;;40.00;;
57842;SDS011;43673;51.058;3.734;2022-08-19T00:30:46;56.28;;;37.13;;
57842;SDS011;43673;51.058;3.734;2022-08-19T00:33:14;56.80;;;36.10;;
57842;SDS011;43673;51.058;3.734;2022-08-19T00:35:44;57.40;;;36.15;;
57842;SDS011;43673;51.058;3.734;2022-08-19T00:38:10;53.67;;;34.22;;
57842;SDS011;43673;51.058;3.734;2022-08-19T00:40:35;56.75;;;36.38;;
57842;SDS011;43673;51.058;3.734;2022-08-19T00:43:11;57.17;;;37.05;;
57842;SDS011;43673;51.058;3.734;2022-08-19T00:45:40;58.00;;;37.03;;
57842;SDS011;43673;51.058;3.734;2022-08-19T00:48:08;52.38;;;37.13;;
57842;SDS011;43673;51.058;3.734;2022-08-19T00:50:35;61.35;;;38.03;;
57842;SDS011;43673;51.058;3.734;2022-08-19T00:53:01;53.65;;;34.83;;
57842;SDS011;43673;51.058;3.734;2022-08-19T00:55:28;56.95;;;37.38;;
57842;SDS011;43673;51.058;3.734;2022-08-19T00:57:55;58.53;;;36.20;;
57842;SDS011;43673;51.058;3.734;2022-08-19T01:00:32;54.90;;;35.13;;
57842;SDS011;43673;51.058;3.734;2022-08-19T01:03:01;55.38;;;34.85;;
57842;SDS011;43673;51.058;3.734;2022-08-19T01:05:32;54.15;;;34.33;;
57842;SDS011;43673;51.058;3.734;2022-08-19T01:08:00;56.55;;;34.65;;
57842;SDS011;43673;51.058;3.734;2022-08-19T01:10:41;52.17;;;34.35;;
57842;SDS011;43673;51.058;3.734;2022-08-19T01:13:12;52.20;;;31.63;;
57842;SDS011;43673;51.058;3.734;2022-08-19T01:15:41;49.42;;;31.70;;
57842;SDS011;43673;51.058;3.734;2022-08-19T01:18:13;51.83;;;30.50;;
57842;SDS011;43673;51.058;3.734;2022-08-19T01:20:41;51.03;;;31.10;;
57842;SDS011;43673;51.058;3.734;2022-08-19T01:23:08;50.67;;;31.17;;
57842;SDS011;43673;51.058;3.734;2022-08-19T01:25:38;51.08;;;30.20;;
57842;SDS011;43673;51.058;3.734;2022-08-19T01:28:12;48.28;;;30.33;;
57842;SDS011;43673;51.058;3.734;2022-08-19T01:30:41;48.60;;;31.90;;
57842;SDS011;43673;51.058;3.734;2022-08-19T01:33:07;51.25;;;31.63;;
57842;SDS011;43673;51.058;3.734;2022-08-19T01:35:33;52.22;;;32.22;;
57842;SDS011;43673;51.058;3.734;2022-08-19T01:38:01;50.13;;;31.00;;
57842;SDS011;43673;51.058;3.734;2022-08-19T01:40:32;47.05;;;28.75;;
57842;SDS011;43673;51.058;3.734;2022-08-19T01:42:59;44.95;;;30.13;;
57842;SDS011;43673;51.058;3.734;2022-08-19T01:45:27;45.88;;;29.73;;
57842;SDS011;43673;51.058;3.734;2022-08-19T01:47:55;44.60;;;27.70;;
57842;SDS011;43673;51.058;3.734;2022-08-19T01:50:21;48.83;;;29.20;;
57842;SDS011;43673;51.058;3.734;2022-08-19T01:52:47;41.20;;;26.40;;
57842;SDS011;43673;51.058;3.734;2022-08-19T01:55:14;40.55;;;28.30;;
57842;SDS011;43673;51.058;3.734;2022-08-19T01:57:42;43.90;;;27.48;;
57842;SDS011;43673;51.058;3.734;2022-08-19T02:00:14;42.20;;;27.42;;
57842;SDS011;43673;51.058;3.734;2022-08-19T02:02:42;49.17;;;29.33;;
57842;SDS011;43673;51.058;3.734;2022-08-19T02:05:08;46.60;;;26.65;;
57842;SDS011;43673;51.058;3.734;2022-08-19T02:07:35;40.72;;;25.50;;
57842;SDS011;43673;51.058;3.734;2022-08-19T02:10:03;46.53;;;26.90;;
57842;SDS011;43673;51.058;3.734;2022-08-19T02:12:30;36.50;;;25.73;;
57842;SDS011;43673;51.058;3.734;2022-08-19T02:14:56;59.90;;;28.95;;
57842;SDS011;43673;51.058;3.734;2022-08-19T02:17:21;41.95;;;28.02;;
57842;SDS011;43673;51.058;3.734;2022-08-19T02:19:47;43.60;;;25.85;;
57842;SDS011;43673;51.058;3.734;2022-08-19T02:22:14;45.47;;;27.30;;
57842;SDS011;43673;51.058;3.734;2022-08-19T02:24:39;41.45;;;27.30;;
57842;SDS011;43673;51.058;3.734;2022-08-19T02:27:05;41.97;;;25.83;;
57842;SDS011;43673;51.058;3.734;2022-08-19T02:29:31;42.10;;;26.58;;
57842;SDS011;43673;51.058;3.734;2022-08-19T02:31:57;47.65;;;24.42;;
57842;SDS011;43673;51.058;3.734;2022-08-19T02:34:23;36.20;;;24.00;;
57842;SDS011;43673;51.058;3.734;2022-08-19T02:36:49;41.70;;;25.83;;
57842;SDS011;43673;51.058;3.734;2022-08-19T02:39:16;50.10;;;27.42;;
57842;SDS011;43673;51.058;3.734;2022-08-19T02:41:42;50.72;;;26.80;;
57842;SDS011;43673;51.058;3.734;2022-08-19T02:44:08;40.42;;;25.60;;
57842;SDS011;43673;51.058;3.734;2022-08-19T02:46:34;41.30;;;25.17;;
57842;SDS011;43673;51.058;3.734;2022-08-19T02:49:02;44.53;;;26.25;;
57842;SDS011;43673;51.058;3.734;2022-08-19T02:51:34;46.05;;;27.17;;
57842;SDS011;43673;51.058;3.734;2022-08-19T02:54:02;48.88;;;26.23;;
57842;SDS011;43673;51.058;3.734;2022-08-19T02:56:29;48.33;;;26.02;;
57842;SDS011;43673;51.058;3.734;2022-08-19T02:58:56;44.08;;;25.67;;
57842;SDS011;43673;51.058;3.734;2022-08-19T03:01:26;43.83;;;26.38;;
57842;SDS011;43673;51.058;3.734;2022-08-19T03:03:57;44.83;;;27.77;;
57842;SDS011;43673;51.058;3.734;2022-08-19T03:06:25;46.78;;;26.45;;
57842;SDS011;43673;51.058;3.734;2022-08-19T03:08:51;48.35;;;30.17;;
57842;SDS011;43673;51.058;3.734;2022-08-19T03:11:25;47.08;;;25.50;;
57842;SDS011;43673;51.058;3.734;2022-08-19T03:13:53;41.70;;;24.85;;
57842;SDS011;43673;51.058;3.734;2022-08-19T03:16:19;41.20;;;24.98;;
57842;SDS011;43673;51.058;3.734;2022-08-19T03:18:47;43.47;;;25.80;;
57842;SDS011;43673;51.058;3.734;2022-08-19T03:21:20;43.03;;;24.20;;
57842;SDS011;43673;51.058;3.734;2022-08-19T03:23:48;43.03;;;25.60;;
57842;SDS011;43673;51.058;3.734;2022-08-19T03:26:14;45.70;;;24.58;;
57842;SDS011;43673;51.058;3.734;2022-08-19T03:28:43;40.03;;;21.95;;
57842;SDS011;43673;51.058;3.734;2022-08-19T03:31:14;38.13;;;22.92;;
57842;SDS011;43673;51.058;3.734;2022-08-19T03:33:41;42.83;;;22.52;;
57842;SDS011;43673;51.058;3.734;2022-08-19T03:36:08;39.70;;;24.00;;
57842;SDS011;43673;51.058;3.734;2022-08-19T03:38:37;38.25;;;22.35;;
57842;SDS011;43673;51.058;3.734;2022-08-19T03:41:06;43.10;;;23.48;;
57842;SDS011;43673;51.058;3.734;2022-08-19T03:43:35;38.13;;;21.50;;
57842;SDS011;43673;51.058;3.734;2022-08-19T03:46:03;45.58;;;20.88;;
57842;SDS011;43673;51.058;3.734;2022-08-19T03:48:34;32.08;;;19.33;;
57842;SDS011;43673;51.058;3.734;2022-08-19T03:51:02;37.15;;;20.02;;
57842;SDS011;43673;51.058;3.734;2022-08-19T03:53:28;33.70;;;19.25;;
57842;SDS011;43673;51.058;3.734;2022-08-19T03:55:56;31.27;;;19.25;;
57842;SDS011;43673;51.058;3.734;2022-08-19T03:58:25;39.17;;;19.83;;
57842;SDS011;43673;51.058;3.734;2022-08-19T04:00:53;32.88;;;19.10;;
57842;SDS011;43673;51.058;3.734;2022-08-19T04:03:19;32.38;;;19.80;;
57842;SDS011;43673;51.058;3.734;2022-08-19T04:05:45;33.22;;;19.85;;
57842;SDS011;43673;51.058;3.734;2022-08-19T04:08:11;32.70;;;19.60;;
57842;SDS011;43673;51.058;3.734;2022-08-19T04:10:37;35.78;;;20.35;;
57842;SDS011;43673;51.058;3.734;2022-08-19T04:13:05;32.45;;;19.58;;
57842;SDS011;43673;51.058;3.734;2022-08-19T04:15:32;30.60;;;18.60;;
57842;SDS011;43673;51.058;3.734;2022-08-19T04:18:04;35.28;;;18.38;;
57842;SDS011;43673;51.058;3.734;2022-08-19T04:20:33;29.85;;;18.92;;
57842;SDS011;43673;51.058;3.734;2022-08-19T04:23:06;25.45;;;16.73;;
57842;SDS011;43673;51.058;3.734;2022-08-19T04:25:39;33.55;;;17.35;;
57842;SDS011;43673;51.058;3.734;2022-08-19T04:28:06;29.88;;;17.95;;
57842;SDS011;43673;51.058;3.734;2022-08-19T04:30:42;30.40;;;19.08;;
57842;SDS011;43673;51.058;3.734;2022-08-19T04:33:10;29.92;;;17.13;;
57842;SDS011;43673;51.058;3.734;2022-08-19T04:35:39;34.45;;;18.85;;
57842;SDS011;43673;51.058;3.734;2022-08-19T04:38:07;31.08;;;17.20;;
57842;SDS011;43673;51.058;3.734;2022-08-19T04:40:33;32.17;;;17.50;;
57842;SDS011;43673;51.058;3.734;2022-08-19T04:43:18;28.40;;;16.92;;
57842;SDS011;43673;51.058;3.734;2022-08-19T04:45:44;26.67;;;15.75;;
57842;SDS011;43673;51.058;3.734;2022-08-19T04:48:11;26.98;;;17.35;;
57842;SDS011;43673;51.058;3.734;2022-08-19T04:50:40;32.90;;;18.13;;
57842;SDS011;43673;51.058;3.734;2022-08-19T04:53:07;26.48;;;17.05;;
57842;SDS011;43673;51.058;3.734;2022-08-19T04:55:33;35.20;;;17.38;;
57842;SDS011;43673;51.058;3.734;2022-08-19T04:58:00;34.58;;;19.23;;
57842;SDS011;43673;51.058;3.734;2022-08-19T05:00:26;37.03;;;19.02;;
57842;SDS011;43673;51.058;3.734;2022-08-19T05:02:52;29.40;;;17.95;;
57842;SDS011;43673;51.058;3.734;2022-08-19T05:05:18;27.63;;;16.45;;
57842;SDS011;43673;51.058;3.734;2022-08-19T05:07:44;33.00;;;17.90;;
57842;SDS011;43673;51.058;3.734;2022-08-19T05:10:10;30.13;;;16.23;;
57842;SDS011;43673;51.058;3.734;2022-08-19T05:12:37;27.63;;;16.60;;
57842;SDS011;43673;51.058;3.734;2022-08-19T05:15:03;30.30;;;15.95;;
57842;SDS011;43673;51.058;3.734;2022-08-19T05:17:30;32.63;;;17.58;;
57842;SDS011;43673;51.058;3.734;2022-08-19T05:19:56;23.35;;;15.20;;
57842;SDS011;43673;51.058;3.734;2022-08-19T05:22:41;26.80;;;16.48;;
57842;SDS011;43673;51.058;3.734;2022-08-19T05:25:10;20.63;;;14.88;;
57842;SDS011;43673;51.058;3.734;2022-08-19T05:27:37;26.70;;;15.98;;
57842;SDS011;43673;51.058;3.734;2022-08-19T05:30:04;24.17;;;13.60;;
57842;SDS011;43673;51.058;3.734;2022-08-19T05:32:30;33.35;;;16.35;;
57842;SDS011;43673;51.058;3.734;2022-08-19T05:34:56;27.42;;;15.90;;
57842;SDS011;43673;51.058;3.734;2022-08-19T05:37:22;22.15;;;15.15;;
57842;SDS011;43673;51.058;3.734;2022-08-19T05:39:48;21.80;;;13.15;;
57842;SDS011;43673;51.058;3.734;2022-08-19T05:42:14;23.05;;;13.52;;
57842;SDS011;43673;51.058;3.734;2022-08-19T05:44:41;23.50;;;14.98;;
57842;SDS011;43673;51.058;3.734;2022-08-19T05:47:12;33.80;;;17.27;;
57842;SDS011;43673;51.058;3.734;2022-08-19T05:49:39;45.60;;;21.00;;
57842;SDS011;43673;51.058;3.734;2022-08-19T05:52:07;31.40;;;15.77;;
57842;SDS011;43673;51.058;3.734;2022-08-19T05:54:36;30.92;;;16.40;;
57842;SDS011;43673;51.058;3.734;2022-08-19T05:57:05;31.27;;;17.17;;
57842;SDS011;43673;51.058;3.734;2022-08-19T05:59:31;28.08;;;17.15;;
57842;SDS011;43673;51.058;3.734;2022-08-19T06:01:56;27.67;;;16.08;;
57842;SDS011;43673;51.058;3.734;2022-08-19T06:04:22;26.58;;;15.50;;
57842;SDS011;43673;51.058;3.734;2022-08-19T06:06:50;25.20;;;17.42;;
57842;SDS011;43673;51.058;3.734;2022-08-19T06:09:19;26.00;;;16.60;;
57842;SDS011;43673;51.058;3.734;2022-08-19T06:11:47;33.10;;;15.80;;
57842;SDS011;43673;51.058;3.734;2022-08-19T06:14:19;28.40;;;15.65;;
57842;SDS011;43673;51.058;3.734;2022-08-19T06:16:49;28.67;;;15.38;;
57842;SDS011;43673;51.058;3.734;2022-08-19T06:19:17;25.85;;;15.75;;
57842;SDS011;43673;51.058;3.734;2022-08-19T06:21:45;31.52;;;18.15;;
57842;SDS011;43673;51.058;3.734;2022-08-19T06:24:13;28.88;;;16.08;;
57842;SDS011;43673;51.058;3.734;2022-08-19T06:26:43;22.00;;;15.10;;
57842;SDS011;43673;51.058;3.734;2022-08-19T06:29:11;25.07;;;15.67;;
57842;SDS011;43673;51.058;3.734;2022-08-19T06:31:43;27.92;;;15.23;;
57842;SDS011;43673;51.058;3.734;2022-08-19T06:34:10;21.63;;;15.23;;
57842;SDS011;43673;51.058;3.734;2022-08-19T06:36:38;24.80;;;14.07;;
57842;SDS011;43673;51.058;3.734;2022-08-19T06:39:17;18.55;;;13.05;;
57842;SDS011;43673;51.058;3.734;2022-08-19T06:41:52;21.60;;;12.82;;
57842;SDS011;43673;51.058;3.734;2022-08-19T06:44:20;24.90;;;13.05;;
57842;SDS011;43673;51.058;3.734;2022-08-19T06:46:47;18.00;;;12.00;;
57842;SDS011;43673;51.058;3.734;2022-08-19T06:49:14;17.42;;;12.27;;
57842;SDS011;43673;51.058;3.734;2022-08-19T06:51:41;15.88;;;9.90;;
57842;SDS011;43673;51.058;3.734;2022-08-19T06:54:08;21.05;;;11.77;;
57842;SDS011;43673;51.058;3.734;2022-08-19T06:56:35;19.25;;;11.48;;
57842;SDS011;43673;51.058;3.734;2022-08-19T06:59:05;16.60;;;10.37;;
57842;SDS011;43673;51.058;3.734;2022-08-19T07:01:37;27.95;;;12.02;;
57842;SDS011;43673;51.058;3.734;2022-08-19T07:04:14;16.23;;;11.23;;
57842;SDS011;43673;51.058;3.734;2022-08-19T07:06:43;15.80;;;10.37;;
57842;SDS011;43673;51.058;3.734;2022-08-19T07:09:09;17.60;;;11.18;;
57842;SDS011;43673;51.058;3.734;2022-08-19T07:11:37;23.80;;;11.40;;
57842;SDS011;43673;51.058;3.734;2022-08-19T07:14:03;16.63;;;10.77;;
57842;SDS011;43673;51.058;3.734;2022-08-19T07:16:30;21.23;;;11.55;;
57842;SDS011;43673;51.058;3.734;2022-08-19T07:18:55;15.52;;;10.73;;
57842;SDS011;43673;51.058;3.734;2022-08-19T07:21:25;18.23;;;11.63;;
57842;SDS011;43673;51.058;3.734;2022-08-19T07:23:53;18.30;;;11.60;;
57842;SDS011;43673;51.058;3.734;2022-08-19T07:26:24;18.23;;;12.63;;
57842;SDS011;43673;51.058;3.734;2022-08-19T07:28:52;16.17;;;11.10;;
57842;SDS011;43673;51.058;3.734;2022-08-19T07:31:19;17.10;;;11.80;;
57842;SDS011;43673;51.058;3.734;2022-08-19T07:33:48;14.02;;;11.05;;
57842;SDS011;43673;51.058;3.734;2022-08-19T07:36:20;18.02;;;11.65;;
57842;SDS011;43673;51.058;3.734;2022-08-19T07:38:48;17.33;;;11.20;;
57842;SDS011;43673;51.058;3.734;2022-08-19T07:41:20;17.63;;;12.88;;
57842;SDS011;43673;51.058;3.734;2022-08-19T07:43:47;19.92;;;12.73;;
57842;SDS011;43673;51.058;3.734;2022-08-19T07:46:14;19.52;;;12.73;;
57842;SDS011;43673;51.058;3.734;2022-08-19T07:48:42;14.65;;;11.02;;
57842;SDS011;43673;51.058;3.734;2022-08-19T07:53:37;17.00;;;11.98;;
57842;SDS011;43673;51.058;3.734;2022-08-19T07:56:04;22.75;;;15.32;;
57842;SDS011;43673;51.058;3.734;2022-08-19T07:58:31;26.55;;;15.05;;
57842;SDS011;43673;51.058;3.734;2022-08-19T08:01:03;21.48;;;15.40;;
57842;SDS011;43673;51.058;3.734;2022-08-19T08:03:30;20.15;;;14.23;;
57842;SDS011;43673;51.058;3.734;2022-08-19T08:06:15;19.95;;;13.35;;
57842;SDS011;43673;51.058;3.734;2022-08-19T08:08:59;21.30;;;13.52;;
57842;SDS011;43673;51.058;3.734;2022-08-19T08:11:46;22.27;;;13.07;;
57842;SDS011;43673;51.058;3.734;2022-08-19T08:14:21;20.92;;;12.43;;
57842;SDS011;43673;51.058;3.734;2022-08-19T08:16:49;21.92;;;14.77;;
57842;SDS011;43673;51.058;3.734;2022-08-19T08:19:16;19.77;;;12.25;;
57842;SDS011;43673;51.058;3.734;2022-08-19T08:21:43;27.75;;;13.52;;
57842;SDS011;43673;51.058;3.734;2022-08-19T08:24:09;22.00;;;12.82;;
57842;SDS011;43673;51.058;3.734;2022-08-19T08:26:36;22.02;;;12.38;;
57842;SDS011;43673;51.058;3.734;2022-08-19T08:29:02;20.52;;;13.73;;
57842;SDS011;43673;51.058;3.734;2022-08-19T08:31:28;20.70;;;12.98;;
57842;SDS011;43673;51.058;3.734;2022-08-19T08:33:54;18.65;;;12.63;;
57842;SDS011;43673;51.058;3.734;2022-08-19T08:36:19;16.75;;;12.30;;
57842;SDS011;43673;51.058;3.734;2022-08-19T08:38:45;22.42;;;13.95;;
57842;SDS011;43673;51.058;3.734;2022-08-19T08:43:44;19.40;;;11.77;;
57842;SDS011;43673;51.058;3.734;2022-08-19T08:46:17;16.00;;;12.05;;
57842;SDS011;43673;51.058;3.734;2022-08-19T08:51:44;13.85;;;12.27;;
57842;SDS011;43673;51.058;3.734;2022-08-19T08:54:14;20.15;;;12.80;;
57842;SDS011;43673;51.058;3.734;2022-08-19T08:56:44;18.00;;;12.35;;
57842;SDS011;43673;51.058;3.734;2022-08-19T08:59:31;14.77;;;11.32;;
57842;SDS011;43673;51.058;3.734;2022-08-19T09:04:28;17.50;;;12.13;;
57842;SDS011;43673;51.058;3.734;2022-08-19T09:09:30;17.10;;;11.15;;
57842;SDS011;43673;51.058;3.734;2022-08-19T09:15:03;13.77;;;9.48;;
57842;SDS011;43673;51.058;3.734;2022-08-19T09:17:33;16.25;;;10.38;;
57842;SDS011;43673;51.058;3.734;2022-08-19T09:20:04;12.25;;;9.48;;
57842;SDS011;43673;51.058;3.734;2022-08-19T09:22:39;13.18;;;9.07;;
57842;SDS011;43673;51.058;3.734;2022-08-19T09:27:36;10.15;;;7.22;;
57842;SDS011;43673;51.058;3.734;2022-08-19T09:30:03;11.50;;;7.90;;
57842;SDS011;43673;51.058;3.734;2022-08-19T09:32:31;10.20;;;6.80;;
57842;SDS011;43673;51.058;3.734;2022-08-19T09:34:58;13.65;;;6.40;;
57842;SDS011;43673;51.058;3.734;2022-08-19T09:37:27;8.00;;;6.22;;
57842;SDS011;43673;51.058;3.734;2022-08-19T09:39:53;7.82;;;5.90;;
57842;SDS011;43673;51.058;3.734;2022-08-19T09:42:19;8.75;;;5.60;;
57842;SDS011;43673;51.058;3.734;2022-08-19T09:44:45;8.88;;;5.63;;
57842;SDS011;43673;51.058;3.734;2022-08-19T09:47:12;8.20;;;5.38;;
57842;SDS011;43673;51.058;3.734;2022-08-19T09:49:39;4.78;;;4.03;;
57842;SDS011;43673;51.058;3.734;2022-08-19T09:52:06;8.88;;;4.32;;
57842;SDS011;43673;51.058;3.734;2022-08-19T09:54:37;6.30;;;4.60;;
57842;SDS011;43673;51.058;3.734;2022-08-19T09:57:04;6.07;;;4.85;;
57842;SDS011;43673;51.058;3.734;2022-08-19T09:59:31;3.28;;;2.97;;
57842;SDS011;43673;51.058;3.734;2022-08-19T10:01:58;4.78;;;3.45;;
57842;SDS011;43673;51.058;3.734;2022-08-19T10:04:24;5.95;;;4.72;;
57842;SDS011;43673;51.058;3.734;2022-08-19T10:07:10;11.32;;;3.70;;
57842;SDS011;43673;51.058;3.734;2022-08-19T10:09:36;6.20;;;4.35;;
57842;SDS011;43673;51.058;3.734;2022-08-19T10:12:02;6.22;;;4.22;;
57842;SDS011;43673;51.058;3.734;2022-08-19T10:14:29;6.18;;;3.97;;
57842;SDS011;43673;51.058;3.734;2022-08-19T10:16:56;10.60;;;6.97;;
57842;SDS011;43673;51.058;3.734;2022-08-19T10:19:22;6.15;;;4.40;;
57842;SDS011;43673;51.058;3.734;2022-08-19T10:21:48;5.75;;;5.18;;
57842;SDS011;43673;51.058;3.734;2022-08-19T10:24:13;7.72;;;4.70;;
57842;SDS011;43673;51.058;3.734;2022-08-19T10:26:39;5.15;;;4.35;;
57842;SDS011;43673;51.058;3.734;2022-08-19T10:29:12;7.47;;;4.30;;
57842;SDS011;43673;51.058;3.734;2022-08-19T10:31:40;5.78;;;4.18;;
57842;SDS011;43673;51.058;3.734;2022-08-19T10:34:07;9.02;;;3.90;;
57842;SDS011;43673;51.058;3.734;2022-08-19T10:36:35;9.38;;;4.20;;
57842;SDS011;43673;51.058;3.734;2022-08-19T10:39:05;8.60;;;3.30;;
57842;SDS011;43673;51.058;3.734;2022-08-19T10:41:34;7.18;;;4.45;;
57842;SDS011;43673;51.058;3.734;2022-08-19T10:44:06;4.22;;;3.83;;
57842;SDS011;43673;51.058;3.734;2022-08-19T10:46:38;7.05;;;4.45;;
57842;SDS011;43673;51.058;3.734;2022-08-19T10:49:07;7.23;;;5.40;;
57842;SDS011;43673;51.058;3.734;2022-08-19T10:51:33;8.10;;;5.97;;
57842;SDS011;43673;51.058;3.734;2022-08-19T10:54:18;5.75;;;5.25;;
57842;SDS011;43673;51.058;3.734;2022-08-19T10:56:44;8.43;;;5.97;;
57842;SDS011;43673;51.058;3.734;2022-08-19T10:59:16;7.47;;;6.05;;
57842;SDS011;43673;51.058;3.734;2022-08-19T11:01:47;8.38;;;5.90;;
57842;SDS011;43673;51.058;3.734;2022-08-19T11:04:13;6.68;;;6.07;;
57842;SDS011;43673;51.058;3.734;2022-08-19T11:06:43;9.52;;;6.18;;
57842;SDS011;43673;51.058;3.734;2022-08-19T11:11:42;7.65;;;6.95;;
57842;SDS011;43673;51.058;3.734;2022-08-19T11:14:12;8.85;;;6.57;;
57842;SDS011;43673;51.058;3.734;2022-08-19T11:16:40;9.60;;;7.43;;
57842;SDS011;43673;51.058;3.734;2022-08-19T11:19:09;8.48;;;7.65;;
57842;SDS011;43673;51.058;3.734;2022-08-19T11:21:41;8.27;;;6.85;;
57842;SDS011;43673;51.058;3.734;2022-08-19T11:24:11;10.80;;;7.07;;
57842;SDS011;43673;51.058;3.734;2022-08-19T11:26:45;8.95;;;6.50;;
57842;SDS011;43673;51.058;3.734;2022-08-19T11:29:14;7.63;;;5.88;;
57842;SDS011;43673;51.058;3.734;2022-08-19T11:31:41;9.68;;;6.28;;
57842;SDS011;43673;51.058;3.734;2022-08-19T11:34:11;10.05;;;4.75;;
57842;SDS011;43673;51.058;3.734;2022-08-19T11:36:39;6.53;;;4.80;;
57842;SDS011;43673;51.058;3.734;2022-08-19T11:39:07;6.63;;;3.78;;
57842;SDS011;43673;51.058;3.734;2022-08-19T11:41:34;5.82;;;3.55;;
57842;SDS011;43673;51.058;3.734;2022-08-19T11:44:00;8.18;;;4.00;;
57842;SDS011;43673;51.058;3.734;2022-08-19T11:46:28;6.40;;;3.53;;
57842;SDS011;43673;51.058;3.734;2022-08-19T11:48:55;7.60;;;3.67;;
57842;SDS011;43673;51.058;3.734;2022-08-19T11:51:22;8.25;;;3.80;;
57842;SDS011;43673;51.058;3.734;2022-08-19T11:53:52;3.50;;;3.03;;
57842;SDS011;43673;51.058;3.734;2022-08-19T11:56:20;2.60;;;2.40;;
57842;SDS011;43673;51.058;3.734;2022-08-19T11:58:47;4.95;;;2.45;;
57842;SDS011;43673;51.058;3.734;2022-08-19T12:01:14;8.32;;;2.85;;
57842;SDS011;43673;51.058;3.734;2022-08-19T12:03:43;2.78;;;2.20;;
57842;SDS011;43673;51.058;3.734;2022-08-19T12:06:12;3.83;;;1.85;;
57842;SDS011;43673;51.058;3.734;2022-08-19T12:11:06;5.55;;;2.35;;
57842;SDS011;43673;51.058;3.734;2022-08-19T12:13:35;3.77;;;3.03;;
57842;SDS011;43673;51.058;3.734;2022-08-19T12:16:09;6.07;;;3.45;;
57842;SDS011;43673;51.058;3.734;2022-08-19T12:18:37;5.10;;;3.15;;
57842;SDS011;43673;51.058;3.734;2022-08-19T12:21:08;3.80;;;2.75;;
57842;SDS011;43673;51.058;3.734;2022-08-19T12:23:36;4.45;;;2.83;;
57842;SDS011;43673;51.058;3.734;2022-08-19T12:26:02;4.95;;;3.33;;
57842;SDS011;43673;51.058;3.734;2022-08-19T12:28:29;6.05;;;4.05;;
57842;SDS011;43673;51.058;3.734;2022-08-19T12:30:55;6.15;;;3.72;;
57842;SDS011;43673;51.058;3.734;2022-08-19T12:33:22;4.13;;;3.40;;
57842;SDS011;43673;51.058;3.734;2022-08-19T12:35:50;7.43;;;4.13;;
57842;SDS011;43673;51.058;3.734;2022-08-19T12:38:16;4.53;;;3.80;;
57842;SDS011;43673;51.058;3.734;2022-08-19T12:40:46;6.25;;;4.28;;
57842;SDS011;43673;51.058;3.734;2022-08-19T12:43:13;7.57;;;4.32;;
57842;SDS011;43673;51.058;3.734;2022-08-19T12:45:41;3.47;;;3.13;;
57842;SDS011;43673;51.058;3.734;2022-08-19T12:48:07;4.00;;;2.80;;
57842;SDS011;43673;51.058;3.734;2022-08-19T12:50:33;3.30;;;3.00;;
57842;SDS011;43673;51.058;3.734;2022-08-19T12:52:59;5.25;;;3.10;;
57842;SDS011;43673;51.058;3.734;2022-08-19T12:55:25;3.10;;;2.78;;
57842;SDS011;43673;51.058;3.734;2022-08-19T12:57:53;4.15;;;2.58;;
57842;SDS011;43673;51.058;3.734;2022-08-19T13:00:19;5.18;;;3.45;;
57842;SDS011;43673;51.058;3.734;2022-08-19T13:02:47;3.88;;;2.30;;
57842;SDS011;43673;51.058;3.734;2022-08-19T13:05:18;5.07;;;1.85;;
57842;SDS011;43673;51.058;3.734;2022-08-19T13:07:47;4.85;;;2.38;;
57842;SDS011;43673;51.058;3.734;2022-08-19T13:10:14;5.45;;;2.45;;
57842;SDS011;43673;51.058;3.734;2022-08-19T13:12:43;5.68;;;2.85;;
57842;SDS011;43673;51.058;3.734;2022-08-19T13:15:10;3.97;;;2.10;;
57842;SDS011;43673;51.058;3.734;2022-08-19T13:17:37;5.35;;;2.08;;
57842;SDS011;43673;51.058;3.734;2022-08-19T13:20:04;2.40;;;2.17;;
57842;SDS011;43673;51.058;3.734;2022-08-19T13:22:33;5.40;;;2.58;;
57842;SDS011;43673;51.058;3.734;2022-08-19T13:25:00;8.25;;;2.30;;
57842;SDS011;43673;51.058;3.734;2022-08-19T13:27:26;11.77;;;4.13;;
57842;SDS011;43673;51.058;3.734;2022-08-19T13:29:52;8.07;;;3.80;;
57842;SDS011;43673;51.058;3.734;2022-08-19T13:32:36;6.70;;;3.05;;
57842;SDS011;43673;51.058;3.734;2022-08-19T13:35:20;4.47;;;2.72;;
57842;SDS011;43673;51.058;3.734;2022-08-19T13:37:46;6.18;;;3.22;;
57842;SDS011;43673;51.058;3.734;2022-08-19T13:40:17;7.55;;;2.47;;
57842;SDS011;43673;51.058;3.734;2022-08-19T13:42:47;3.05;;;2.10;;
57842;SDS011;43673;51.058;3.734;2022-08-19T13:45:15;17.27;;;2.30;;
57842;SDS011;43673;51.058;3.734;2022-08-19T13:47:44;3.00;;;1.90;;
57842;SDS011;43673;51.058;3.734;2022-08-19T13:50:18;4.82;;;2.38;;
57842;SDS011;43673;51.058;3.734;2022-08-19T13:52:45;3.72;;;1.70;;
57842;SDS011;43673;51.058;3.734;2022-08-19T13:55:12;6.93;;;2.15;;
57842;SDS011;43673;51.058;3.734;2022-08-19T13:57:39;2.95;;;2.42;;
57842;SDS011;43673;51.058;3.734;2022-08-19T14:00:07;4.65;;;2.20;;
57842;SDS011;43673;51.058;3.734;2022-08-19T14:05:03;5.78;;;2.90;;
57842;SDS011;43673;51.058;3.734;2022-08-19T14:07:30;4.40;;;2.15;;
57842;SDS011;43673;51.058;3.734;2022-08-19T14:09:55;7.93;;;2.95;;
57842;SDS011;43673;51.058;3.734;2022-08-19T14:12:24;4.22;;;3.83;;
57842;SDS011;43673;51.058;3.734;2022-08-19T14:14:50;8.40;;;4.25;;
57842;SDS011;43673;51.058;3.734;2022-08-19T14:17:16;6.15;;;4.25;;
57842;SDS011;43673;51.058;3.734;2022-08-19T14:19:42;6.90;;;4.35;;
57842;SDS011;43673;51.058;3.734;2022-08-19T14:22:08;6.63;;;4.05;;
57842;SDS011;43673;51.058;3.734;2022-08-19T14:24:34;8.13;;;4.03;;
57842;SDS011;43673;51.058;3.734;2022-08-19T14:27:01;9.15;;;4.95;;
57842;SDS011;43673;51.058;3.734;2022-08-19T14:29:28;8.77;;;4.90;;
57842;SDS011;43673;51.058;3.734;2022-08-19T14:31:54;11.82;;;5.80;;
57842;SDS011;43673;51.058;3.734;2022-08-19T14:34:21;9.50;;;4.80;;
57842;SDS011;43673;51.058;3.734;2022-08-19T14:36:47;7.90;;;4.85;;
57842;SDS011;43673;51.058;3.734;2022-08-19T14:39:13;10.75;;;4.78;;
57842;SDS011;43673;51.058;3.734;2022-08-19T14:41:40;8.23;;;5.00;;
57842;SDS011;43673;51.058;3.734;2022-08-19T14:44:06;8.75;;;5.90;;
57842;SDS011;43673;51.058;3.734;2022-08-19T14:46:35;6.80;;;5.65;;
57842;SDS011;43673;51.058;3.734;2022-08-19T14:49:00;8.35;;;6.28;;
57842;SDS011;43673;51.058;3.734;2022-08-19T14:51:27;10.27;;;6.45;;
57842;SDS011;43673;51.058;3.734;2022-08-19T14:53:52;10.57;;;6.10;;
57842;SDS011;43673;51.058;3.734;2022-08-19T14:56:20;9.38;;;7.85;;
57842;SDS011;43673;51.058;3.734;2022-08-19T14:58:47;7.70;;;6.50;;
57842;SDS011;43673;51.058;3.734;2022-08-19T15:01:16;16.15;;;5.53;;
57842;SDS011;43673;51.058;3.734;2022-08-19T15:03:42;10.43;;;6.55;;